Sulphur Springs, OH (44881)

12:43 AM EST en Diciembre 18, 2014 (GMT -0500)
Brandywine Creek | Change Station
CLOSE
Current Station
Estación meteorológica personal
Location: Bucyrus, OH
Altura: 997 ft
Estaciones meteorológicas cercanas

Alt 997 ft 40.86 °N, 82.96 °W | Updated 11 minutes ago

Nublado
Nublado
26.4 ° F
Sensación térmica 21 ° F
N
4.7
Viento Variable Viento desde NO

Hoy
Alta -- | Baja -- ° F
--% Posibilidad de precipitaciones
Ayer
Alta -- | Baja -- ° F
Precip. -- pul
7:50 AM 5:05 PM
Creciente menguante, 17% visible
Presión 30.22 pul
Visibilidad 10.0 Millas
Nubes Muy nublado 1700 ft
Nublado 2300 ft
Vientos helados 21 ° F
Punto de rocío 24 ° F
Humedad 89%
Precipitaciones 0.00 pul
Espesor de la nieve No disponible.
UV 0 de una escala de 12
Polen .10 de una escala de 12
Calidad del aire No disponible.
Flu Activity No disponible.
METAR KMFD 180452Z 27007KT 10SM BKN017 OVC023 M03/M06 A3017 RMK AO2 SLP232 T10331061 400281033

More Conditions Fewer Conditions

Presión 30.22 pul
Visibilidad 10.0 Millas
Nubes Muy nublado 1700 ft
Nublado 2300 ft
Vientos helados 21 ° F
Punto de rocío 24 ° F
Humedad 89%
Precipitaciones 0.00 pul
Espesor de la nieve No disponible.
UV 0 de una escala de 12
Polen .10 de una escala de 12
Calidad del aire No disponible.
Flu Activity No disponible.
METAR KMFD 180452Z 27007KT 10SM BKN017 OVC023 M03/M06 A3017 RMK AO2 SLP232 T10331061 400281033

More Conditions Fewer Conditions

10-Day Weather Forecast

Almanac

Astronomía

Dec. 18, 2014 Salida Puesta
Hora real
Crepúsculo civil
Crepúsculo náutico
Crepúsculo astronómico
Luna
Horas de luz
Horas de luz
Tomorrow will be .
, % of the Moon is Illuminated

Extremos de hoy

Máximos del estado Bajos del estado

Community

WunderPhotos

Upload Photos

1,778,896 ¡fotos cargadas!

WunderBlogs® & News

Nearby

Calidad del aire

  Calidad del aire Índice AQ Contaminante
Not available.

Grosos de nieve

Estación Profundido Altura

Actividad de terremotos

Ciudad Distance Mag. Tiempo y dato
Magnitud mínima muestra es 2,5.

Temperaturas de aguas costeras

Lugar Temperatura

Estaciones meteorológicas cercanas